Time;durP1;ratioP1;P1;durP2;ratioP2;P2;SDS_P1;SDS_P2;PMS_P1;PMS_P2;Temp;Humidity;BMP_temperature;BMP_pressure;BME280_temperature;BME280_humidity;BME280_pressure;Samples;Min_cycle;Max_cycle;Signal;HPM_P1;HPM_P2
2021/03/12 00:00:38;;;;;;;9.10;4.63;;;;;;;7.08;68.04;99270.34;5085545;28;20391;-71
2021/03/12 00:03:06;;;;;;;5.17;4.67;;;;;;;7.36;67.45;99263.44;5083924;28;20851;-71
2021/03/12 00:05:32;;;;;;;9.83;3.90;;;;;;;7.51;67.13;99265.13;5081083;28;20442;-72
2021/03/12 00:07:57;;;;;;;6.80;3.80;;;;;;;7.05;67.93;99272.97;5063412;28;20503;-71
2021/03/12 00:10:25;;;;;;;3.73;3.40;;;;;;;7.06;69.24;99272.06;5079974;28;20200;-71
2021/03/12 00:12:51;;;;;;;9.77;4.77;;;;;;;7.45;66.91;99277.25;5079440;28;20189;-73
2021/03/12 00:15:18;;;;;;;6.20;3.20;;;;;;;7.01;67.27;99279.84;5080056;28;20407;-71
2021/03/12 00:17:44;;;;;;;6.30;3.60;;;;;;;6.98;67.88;99285.03;5081533;28;20466;-71
2021/03/12 00:20:18;;;;;;;6.50;3.37;;;;;;;6.95;67.69;99286.75;5084940;28;20411;-71
2021/03/12 00:22:44;;;;;;;6.20;3.70;;;;;;;7.39;65.91;99297.13;5084519;28;20410;-70
2021/03/12 00:25:13;;;;;;;8.23;3.80;;;;;;;7.27;67.39;99309.25;5081995;28;20462;-71
2021/03/12 00:27:39;;;;;;;4.40;3.00;;;;;;;7.38;65.68;99316.13;5082816;28;20418;-73
2021/03/12 00:30:05;;;;;;;6.37;3.43;;;;;;;7.64;64.75;99306.59;5079910;28;20419;-71
2021/03/12 00:32:30;;;;;;;5.83;3.27;;;;;;;7.41;65.59;99320.44;5079367;28;20545;-70
2021/03/12 00:34:56;;;;;;;3.77;3.30;;;;;;;7.53;65.09;99324.78;5079774;28;20443;-71
2021/03/12 00:37:21;;;;;;;4.70;3.10;;;;;;;7.25;66.53;99319.59;5079049;28;20211;-71
2021/03/12 00:39:46;;;;;;;3.13;2.73;;;;;;;7.65;64.68;99335.13;5078351;28;20177;-71
2021/03/12 00:42:12;;;;;;;4.50;3.33;;;;;;;7.80;63.98;99323.00;5079577;28;20272;-70
2021/03/12 00:44:37;;;;;;;7.53;3.97;;;;;;;7.60;64.44;99331.66;5078993;28;20531;-70
2021/03/12 00:47:02;;;;;;;10.20;3.43;;;;;;;7.35;65.26;99331.69;5078782;28;20408;-72
2021/03/12 00:49:28;;;;;;;4.00;3.10;;;;;;;7.44;65.20;99332.56;5079173;28;20244;-70
2021/03/12 00:51:54;;;;;;;5.47;3.43;;;;;;;7.78;64.84;99329.91;5078704;28;20215;-70
2021/03/12 00:54:19;;;;;;;3.57;3.10;;;;;;;7.47;64.58;99337.72;5078689;28;20224;-71
2021/03/12 00:56:44;;;;;;;4.23;3.30;;;;;;;7.47;65.13;99336.00;5079173;28;20260;-71
2021/03/12 00:59:10;;;;;;;7.87;3.40;;;;;;;7.39;66.27;99346.38;5078703;28;20169;-70
2021/03/12 01:01:35;;;;;;;9.97;6.27;;;;;;;7.74;64.58;99344.66;5077717;28;20181;-70
2021/03/12 01:04:00;;;;;;;5.23;3.40;;;;;;;7.55;65.09;99344.66;5078344;28;20173;-70
2021/03/12 01:06:25;;;;;;;6.00;4.27;;;;;;;7.73;64.75;99351.53;5080951;28;20177;-71
2021/03/12 01:08:51;;;;;;;7.23;3.40;;;;;;;7.46;65.06;99354.19;5081741;28;20199;-71
2021/03/12 01:11:16;;;;;;;6.00;3.40;;;;;;;7.57;64.47;99353.28;5079165;28;20199;-71
2021/03/12 01:13:41;;;;;;;6.07;3.30;;;;;;;7.57;64.72;99353.28;5078387;28;20180;-71
2021/03/12 01:16:07;;;;;;;4.63;3.50;;;;;;;7.13;66.38;99355.88;5077755;28;20180;-71
2021/03/12 01:18:32;;;;;;;5.80;3.80;;;;;;;7.35;65.60;99357.63;5078680;28;20230;-71
2021/03/12 01:20:57;;;;;;;20.33;11.60;;;;;;;7.55;64.61;99355.03;5078220;28;20172;-72
2021/03/12 01:23:23;;;;;;;10.93;5.80;;;;;;;7.55;64.49;99355.03;5078614;28;20596;-71
2021/03/12 01:25:48;;;;;;;19.13;10.73;;;;;;;7.53;65.17;99351.56;5078477;28;20232;-71
2021/03/12 01:28:13;;;;;;;5.87;3.37;;;;;;;7.51;64.56;99358.50;5078168;28;20177;-71
2021/03/12 01:30:41;;;;;;;6.23;3.80;;;;;;;7.57;64.98;99371.44;5077547;28;20196;-72
2021/03/12 01:33:07;;;;;;;5.00;3.30;;;;;;;7.27;65.41;99361.09;5078216;28;20169;-72
2021/03/12 01:35:33;;;;;;;6.87;3.37;;;;;;;7.36;65.26;99359.34;5078113;28;20441;-72
2021/03/12 01:37:58;;;;;;;6.70;3.50;;;;;;;7.40;65.40;99361.09;5077777;28;20552;-71
2021/03/12 01:40:26;;;;;;;8.83;3.97;;;;;;;7.46;64.87;99370.59;5078060;28;20411;-72
2021/03/12 01:42:53;;;;;;;7.70;3.30;;;;;;;6.97;66.07;99363.63;5077939;28;20207;-71
2021/03/12 01:45:22;;;;;;;6.47;3.53;;;;;;;7.47;65.18;99361.06;5078369;28;20403;-71
2021/03/12 01:47:49;;;;;;;6.13;4.47;;;;;;;7.34;65.75;99366.25;5078176;28;20415;-71
2021/03/12 01:50:14;;;;;;;7.80;3.70;;;;;;;7.31;65.10;99366.25;5078091;28;20746;-71
2021/03/12 01:52:40;;;;;;;7.63;4.27;;;;;;;7.83;64.26;99369.69;5078391;28;20415;-71
2021/03/12 01:55:06;;;;;;;6.07;4.20;;;;;;;7.41;64.60;99372.31;5077269;28;20256;-71
2021/03/12 01:57:32;;;;;;;8.40;3.90;;;;;;;7.33;65.07;99366.25;5077894;28;20179;-71
2021/03/12 01:59:57;;;;;;;4.90;3.53;;;;;;;7.83;63.95;99367.09;5077643;28;20400;-71
2021/03/12 02:02:23;;;;;;;5.17;3.90;;;;;;;7.35;65.60;99372.31;5077753;28;20804;-72
2021/03/12 02:04:48;;;;;;;8.20;4.43;;;;;;;7.52;64.42;99370.59;5077813;28;20176;-71
2021/03/12 02:07:13;;;;;;;6.87;3.90;;;;;;;7.36;64.61;99379.22;5078363;28;20165;-71
2021/03/12 02:09:39;;;;;;;11.20;3.73;;;;;;;7.54;64.71;99381.81;5077943;28;20580;-71
2021/03/12 02:12:18;;;;;;;11.50;4.27;;;;;;;7.48;64.56;99376.66;5077997;28;20212;-71
2021/03/12 02:14:50;;;;;;;8.30;4.53;;;;;;;7.85;63.40;99378.34;5081790;28;20263;-71
2021/03/12 02:17:23;;;;;;;6.77;3.97;;;;;;;7.23;65.15;99380.94;5081135;28;20506;-72
2021/03/12 02:20:10;;;;;;;6.27;3.80;;;;;;;7.19;65.91;99381.81;5081674;28;20422;-70
2021/03/12 02:22:40;;;;;;;7.37;3.80;;;;;;;7.50;64.49;99394.78;5081603;28;20407;-71
2021/03/12 02:25:08;;;;;;;7.77;3.70;;;;;;;7.04;65.33;99396.44;5085764;28;20433;-72
2021/03/12 02:27:33;;;;;;;7.57;3.90;;;;;;;7.05;66.17;99392.16;5081520;28;20415;-71
2021/03/12 02:30:00;;;;;;;5.53;3.80;;;;;;;7.32;65.35;99399.09;5081478;28;20410;-71
2021/03/12 02:32:47;;;;;;;9.90;4.80;;;;;;;7.40;65.01;99404.28;5081475;28;20173;-71
2021/03/12 02:35:20;;;;;;;8.57;4.10;;;;;;;7.35;65.38;99406.88;5081405;28;20411;-71
2021/03/12 02:37:46;;;;;;;7.30;3.83;;;;;;;7.15;65.56;99401.66;5081482;28;20411;-70
2021/03/12 02:40:12;;;;;;;10.03;4.00;;;;;;;7.28;65.33;99412.94;5080674;28;20437;-71
2021/03/12 02:42:39;;;;;;;6.97;3.70;;;;;;;7.44;65.58;99418.97;5080733;28;20180;-71
2021/03/12 02:45:06;;;;;;;8.37;4.20;;;;;;;7.37;64.56;99412.06;5080589;28;20196;-72
2021/03/12 02:47:32;;;;;;;9.40;4.40;;;;;;;7.06;66.15;99423.25;5081150;28;20508;-71
2021/03/12 02:49:58;;;;;;;9.13;4.70;;;;;;;7.24;65.53;99417.22;5081561;28;20418;-71
2021/03/12 02:52:25;;;;;;;6.67;4.00;;;;;;;6.97;66.83;99420.63;5082559;28;20308;-71
2021/03/12 02:54:50;;;;;;;10.67;4.57;;;;;;;7.31;66.13;99423.28;5082378;28;20785;-71
2021/03/12 02:57:18;;;;;;;6.73;4.57;;;;;;;7.39;65.62;99425.91;5082790;28;20418;-71
2021/03/12 02:59:45;;;;;;;12.63;5.07;;;;;;;7.28;66.54;99433.66;5082149;28;20185;-71
2021/03/12 03:02:10;;;;;;;8.33;4.63;;;;;;;7.27;66.31;99433.66;5082132;28;20460;-71
2021/03/12 03:04:40;;;;;;;6.53;4.63;;;;;;;7.60;65.46;99425.03;5083533;28;20524;-72
2021/03/12 03:07:10;;;;;;;8.03;5.33;;;;;;;7.25;66.45;99439.72;5081569;28;20443;-71
2021/03/12 03:09:39;;;;;;;11.13;5.13;;;;;;;7.15;67.60;99437.94;5080925;28;20419;-73
2021/03/12 03:12:09;;;;;;;9.70;5.50;;;;;;;7.29;67.78;99444.88;5081557;28;20477;-71
2021/03/12 03:14:35;;;;;;;10.43;5.37;;;;;;;7.40;67.51;99457.00;5081893;28;20445;-71
2021/03/12 03:17:04;;;;;;;10.10;6.20;;;;;;;7.16;67.66;99447.44;5084195;28;20448;-71
2021/03/12 03:19:31;;;;;;;15.50;5.70;;;;;;;7.06;67.80;99453.47;5084163;28;20234;-71
2021/03/12 03:22:00;;;;;;;15.23;5.77;;;;;;;7.13;67.74;99454.34;5083350;28;20667;-71
2021/03/12 03:24:26;;;;;;;12.93;5.60;;;;;;;7.29;67.68;99466.47;5080628;28;20661;-70
2021/03/12 03:26:52;;;;;;;11.70;5.73;;;;;;;7.68;65.67;99463.97;5079632;28;20459;-70
2021/03/12 03:29:17;;;;;;;10.47;5.70;;;;;;;7.34;67.38;99469.94;5081478;28;20419;-71
2021/03/12 03:31:44;;;;;;;8.73;5.40;;;;;;;7.61;65.74;99470.88;5080553;28;20196;-71
2021/03/12 03:34:10;;;;;;;10.17;5.83;;;;;;;7.51;66.43;99474.31;5080156;28;20280;-71
2021/03/12 03:36:35;;;;;;;11.43;5.33;;;;;;;7.20;67.41;99471.66;5080279;28;20492;-72
2021/03/12 03:39:00;;;;;;;8.27;5.20;;;;;;;7.47;65.71;99465.66;5080787;28;20199;-72
2021/03/12 03:41:26;;;;;;;13.27;6.97;;;;;;;7.18;66.39;99471.63;5080057;28;20173;-71
2021/03/12 03:43:53;;;;;;;8.50;5.13;;;;;;;7.82;64.22;99477.81;5080066;28;20539;-72
2021/03/12 03:46:19;;;;;;;12.83;6.07;;;;;;;7.54;65.13;99484.69;5079705;28;20173;-71
2021/03/12 03:48:44;;;;;;;12.53;6.30;;;;;;;7.32;65.35;99479.47;5079458;28;20833;-71
2021/03/12 03:51:12;;;;;;;10.20;5.60;;;;;;;7.62;64.68;99484.69;5079765;28;20205;-71
2021/03/12 03:53:38;;;;;;;12.83;5.40;;;;;;;7.59;64.40;99490.78;5079681;28;20183;-72
2021/03/12 03:56:04;;;;;;;14.60;7.20;;;;;;;7.38;64.98;99482.06;5079100;28;20751;-71
2021/03/12 03:58:31;;;;;;;11.23;4.90;;;;;;;7.65;63.50;99493.34;5078985;28;20505;-70
2021/03/12 04:00:56;;;;;;;8.20;5.13;;;;;;;7.48;64.96;99487.28;5079350;28;20173;-71
2021/03/12 04:03:22;;;;;;;10.33;5.77;;;;;;;7.31;63.74;99495.88;5079146;28;20420;-70
2021/03/12 04:05:48;;;;;;;12.30;5.63;;;;;;;7.90;62.36;99493.38;5079142;28;20533;-70
2021/03/12 04:08:13;;;;;;;11.83;5.60;;;;;;;7.48;62.62;99505.41;5079472;28;20586;-71
2021/03/12 04:10:39;;;;;;;8.10;4.90;;;;;;;7.79;62.52;99514.13;5078704;28;20922;-70
2021/03/12 04:13:04;;;;;;;9.30;5.40;;;;;;;7.50;62.95;99512.34;5079372;28;20456;-70
2021/03/12 04:15:30;;;;;;;14.77;5.73;;;;;;;7.51;61.98;99519.28;5079566;28;20161;-72
2021/03/12 04:17:56;;;;;;;10.10;5.33;;;;;;;7.66;61.80;99525.34;5079524;28;20203;-71
2021/03/12 04:20:22;;;;;;;7.13;4.30;;;;;;;7.87;60.60;99537.47;5080275;28;20184;-70
2021/03/12 04:22:48;;;;;;;10.87;5.53;;;;;;;7.91;59.95;99539.22;5084636;28;20419;-71
2021/03/12 04:25:13;;;;;;;9.90;4.67;;;;;;;7.57;61.33;99536.56;5079788;28;20164;-71
2021/03/12 04:27:39;;;;;;;9.37;5.47;;;;;;;7.99;60.94;99540.09;5079155;28;20466;-71
2021/03/12 04:30:05;;;;;;;8.70;5.20;;;;;;;7.85;60.73;99544.41;5078770;28;20195;-72
2021/03/12 04:32:30;;;;;;;9.70;6.10;;;;;;;7.17;62.86;99555.47;5078891;28;20192;-70
2021/03/12 04:34:56;;;;;;;11.43;5.30;;;;;;;7.21;62.82;99562.38;5078344;28;20415;-71
2021/03/12 04:37:21;;;;;;;10.87;7.80;;;;;;;7.23;63.15;99565.84;5079294;28;20176;-69
2021/03/12 04:39:48;;;;;;;13.43;5.37;;;;;;;7.64;62.13;99565.97;5078402;28;20255;-72
2021/03/12 04:42:13;;;;;;;10.17;4.93;;;;;;;7.40;63.26;99578.88;5061358;28;20447;-70
2021/03/12 04:44:39;;;;;;;15.70;5.53;;;;;;;7.54;62.29;99585.84;5078948;28;20410;-71
2021/03/12 04:47:05;;;;;;;7.50;4.40;;;;;;;7.14;62.37;99575.31;5078112;28;20187;-71
2021/03/12 04:49:31;;;;;;;6.50;4.53;;;;;;;7.72;60.93;99593.66;5078216;28;20251;-71
2021/03/12 04:51:57;;;;;;;9.10;5.00;;;;;;;7.40;62.12;99590.97;5078241;28;20455;-71
2021/03/12 04:54:23;;;;;;;10.53;4.90;;;;;;;7.82;61.25;99581.59;5078660;28;20485;-72
2021/03/12 04:56:48;;;;;;;8.60;5.07;;;;;;;7.85;60.32;99593.72;5078576;28;20431;-71
2021/03/12 04:59:14;;;;;;;15.73;5.70;;;;;;;7.66;60.33;99590.19;5078503;28;20177;-71
2021/03/12 05:01:42;;;;;;;11.77;5.03;;;;;;;7.44;61.30;99599.63;5078386;28;20173;-71
2021/03/12 05:04:08;;;;;;;9.27;5.30;;;;;;;7.98;59.37;99594.59;5078386;28;20176;-71
2021/03/12 05:06:36;;;;;;;15.43;5.03;;;;;;;7.71;61.68;99611.81;5078962;28;20746;-70
2021/03/12 05:09:02;;;;;;;16.67;5.40;;;;;;;7.53;60.80;99604.84;5077716;28;20411;-71
2021/03/12 05:11:28;;;;;;;11.97;5.40;;;;;;;7.54;61.27;99611.78;5078597;28;20780;-71
2021/03/12 05:13:53;;;;;;;6.80;4.60;;;;;;;7.13;61.95;99615.91;5079481;28;20196;-70
2021/03/12 05:16:19;;;;;;;7.13;4.90;;;;;;;7.53;61.04;99620.41;5079072;28;20227;-70
2021/03/12 05:18:45;;;;;;;10.20;5.40;;;;;;;7.25;61.56;99628.06;5078396;28;20183;-70
2021/03/12 05:21:10;;;;;;;9.80;4.93;;;;;;;7.53;60.59;99621.25;5078590;28;20439;-70
2021/03/12 05:23:36;;;;;;;13.47;5.03;;;;;;;7.44;60.62;99631.59;5077534;28;20177;-71
2021/03/12 05:26:01;;;;;;;10.40;4.50;;;;;;;7.22;61.55;99628.03;5078300;28;20220;-71
2021/03/12 05:28:27;;;;;;;9.20;4.50;;;;;;;7.01;61.73;99642.63;5078857;28;20210;-71
2021/03/12 05:30:52;;;;;;;14.23;5.10;;;;;;;7.65;60.46;99632.56;5078187;28;20219;-70
2021/03/12 05:33:18;;;;;;;10.73;4.70;;;;;;;7.57;59.96;99632.53;5078335;28;20173;-72
2021/03/12 05:35:44;;;;;;;12.97;5.33;;;;;;;7.32;60.40;99635.03;5078630;28;20600;-71
2021/03/12 05:38:09;;;;;;;9.23;4.60;;;;;;;7.40;60.43;99645.41;5078179;28;20427;-71
2021/03/12 05:40:34;;;;;;;13.03;5.47;;;;;;;7.48;60.24;99659.31;5078166;28;20168;-72
2021/03/12 05:43:02;;;;;;;15.10;5.53;;;;;;;7.51;60.11;99653.25;5078335;28;20437;-71
2021/03/12 05:45:27;;;;;;;8.23;4.83;;;;;;;7.37;60.47;99656.66;5078136;28;20540;-71
2021/03/12 05:47:54;;;;;;;11.07;5.63;;;;;;;7.62;59.79;99661.06;5083167;28;20463;-71
2021/03/12 05:50:20;;;;;;;6.27;4.60;;;;;;;7.14;60.73;99660.84;5085227;28;20224;-71
2021/03/12 05:52:46;;;;;;;10.03;4.30;;;;;;;7.24;59.79;99670.41;5084538;28;20443;-71
2021/03/12 05:55:14;;;;;;;13.57;4.90;;;;;;;7.68;58.98;99674.06;5084669;28;20224;-70
2021/03/12 05:57:39;;;;;;;10.17;5.13;;;;;;;7.46;59.10;99671.38;5085090;28;20407;-71
2021/03/12 06:00:05;;;;;;;9.93;5.10;;;;;;;7.61;58.74;99673.19;5083977;28;20453;-71
2021/03/12 06:02:31;;;;;;;10.00;5.03;;;;;;;7.71;59.35;99677.56;5084461;28;20196;-71
2021/03/12 06:04:56;;;;;;;11.63;5.53;;;;;;;7.35;59.62;99689.47;5085012;28;20436;-72
2021/03/12 06:07:22;;;;;;;8.73;5.03;;;;;;;7.46;58.74;99692.13;5084559;28;20172;-71
2021/03/12 06:09:47;;;;;;;8.47;5.33;;;;;;;7.29;58.99;99689.44;5083875;28;20447;-71
2021/03/12 06:12:13;;;;;;;17.20;5.13;;;;;;;7.87;59.52;99690.56;5084602;28;20196;-72
2021/03/12 06:14:56;;;;;;;9.93;4.50;;;;;;;7.21;59.71;99701.47;5084368;28;20553;-71
2021/03/12 06:17:42;;;;;;;10.43;4.67;;;;;;;7.32;59.43;99705.03;5084748;28;20461;-71
2021/03/12 06:20:13;;;;;;;11.27;5.23;;;;;;;7.34;59.03;99708.47;5091523;28;20423;-71
2021/03/12 06:22:48;;;;;;;12.27;5.60;;;;;;;7.26;59.00;99712.75;5091535;28;20472;-70
2021/03/12 06:25:15;;;;;;;13.83;5.53;;;;;;;7.21;59.28;99717.03;5084174;28;20412;-71
2021/03/12 06:27:41;;;;;;;10.87;5.00;;;;;;;7.15;59.57;99717.00;5085722;28;20692;-70
2021/03/12 06:30:07;;;;;;;12.70;5.30;;;;;;;7.12;59.32;99727.31;5085174;28;20414;-70
2021/03/12 06:32:46;;;;;;;11.33;4.43;;;;;;;7.19;59.31;99729.97;5085818;28;20169;-71
2021/03/12 06:35:15;;;;;;;11.40;4.67;;;;;;;7.51;58.68;99738.81;5085654;28;20448;-71
2021/03/12 06:37:41;;;;;;;8.50;4.43;;;;;;;7.44;59.22;99731.88;5083942;28;20862;-71
2021/03/12 06:40:19;;;;;;;17.57;5.33;;;;;;;7.52;59.12;99735.38;5085035;28;20482;-71
2021/03/12 06:42:57;;;;;;;13.10;5.00;;;;;;;7.47;59.21;99737.97;5084604;28;20414;-70
2021/03/12 06:45:23;;;;;;;13.00;4.90;;;;;;;7.24;59.11;99749.03;5084607;28;20480;-70
2021/03/12 06:47:48;;;;;;;11.20;4.83;;;;;;;7.42;59.51;99743.09;5084474;28;20426;-72
2021/03/12 06:50:13;;;;;;;10.33;4.80;;;;;;;7.95;59.12;99745.13;5085387;28;20252;-71
2021/03/12 06:52:39;;;;;;;10.27;5.03;;;;;;;7.38;59.62;99756.91;5089637;28;20195;-71
2021/03/12 06:55:06;;;;;;;10.27;4.67;;;;;;;7.26;60.10;99762.00;5090822;28;20185;-71
2021/03/12 06:57:31;;;;;;;8.10;4.70;;;;;;;7.55;59.77;99761.31;5086207;28;20161;-71
2021/03/12 07:00:05;;;;;;;9.10;4.97;;;;;;;7.65;58.47;99770.91;5080892;28;20804;-71
2021/03/12 07:02:34;;;;;;;7.50;4.83;;;;;;;7.98;58.46;99764.13;5081302;28;20169;-78
2021/03/12 07:04:59;;;;;;;11.17;4.60;;;;;;;7.71;57.97;99770.94;5078647;28;20455;-72
2021/03/12 07:07:35;;;;;;;13.63;5.33;;;;;;;7.95;58.34;99764.13;5080786;28;20786;-71
2021/03/12 07:10:01;;;;;;;9.60;5.07;;;;;;;8.03;58.52;99759.00;5080592;28;20187;-72
2021/03/12 07:12:45;;;;;;;10.63;4.57;;;;;;;7.51;58.62;99783.78;5080917;28;20836;-72
2021/03/12 07:15:12;;;;;;;8.27;4.70;;;;;;;7.52;58.22;99790.72;5061532;28;20256;-72
2021/03/12 07:17:39;;;;;;;10.57;5.03;;;;;;;7.85;56.87;99799.56;5060920;28;20444;-71
2021/03/12 07:20:07;;;;;;;10.40;4.90;;;;;;;7.88;58.16;99798.72;5060540;28;20455;-71
2021/03/12 07:22:33;;;;;;;8.40;4.80;;;;;;;7.74;58.34;99798.66;5071052;28;20411;-69
2021/03/12 07:25:03;;;;;;;11.57;4.27;;;;;;;8.03;56.79;99803.97;5080442;28;20878;-69
2021/03/12 07:27:32;;;;;;;12.83;4.80;;;;;;;8.38;56.01;99805.84;5079695;28;20465;-68
2021/03/12 07:30:00;;;;;;;11.07;4.57;;;;;;;7.57;57.35;99803.72;5080372;28;20419;-69
2021/03/12 07:32:26;;;;;;;7.70;4.80;;;;;;;7.38;58.72;99808.75;5080199;28;20529;-69
2021/03/12 07:34:52;;;;;;;12.10;4.50;;;;;;;7.90;56.26;99817.75;5080516;28;20415;-68
2021/03/12 07:37:19;;;;;;;10.67;4.90;;;;;;;7.42;57.74;99820.88;5080426;28;20665;-69
2021/03/12 07:39:46;;;;;;;8.60;4.23;;;;;;;7.70;58.14;99821.09;5079474;28;20419;-69
2021/03/12 07:42:16;;;;;;;11.73;4.60;;;;;;;7.79;57.77;99827.19;5079854;28;20450;-69
2021/03/12 07:44:45;;;;;;;9.67;4.60;;;;;;;7.89;57.00;99819.47;5080241;28;20422;-71
2021/03/12 07:47:10;;;;;;;6.90;3.93;;;;;;;7.78;59.42;99828.94;5079788;28;20428;-68
2021/03/12 07:49:36;;;;;;;6.83;3.90;;;;;;;7.66;58.04;99837.50;5079536;28;20411;-68
2021/03/12 07:52:03;;;;;;;8.40;4.63;;;;;;;7.68;57.56;99840.97;5079709;28;20236;-67
2021/03/12 07:54:35;;;;;;;10.30;5.13;;;;;;;7.97;57.53;99835.09;5080008;28;20419;-67
2021/03/12 07:57:00;;;;;;;8.47;4.67;;;;;;;7.64;58.97;99838.34;5080307;28;20411;-68
2021/03/12 07:59:44;;;;;;;9.20;4.93;;;;;;;7.89;57.37;99841.97;5079684;28;20506;-67
2021/03/12 08:02:09;;;;;;;9.07;4.60;;;;;;;8.30;56.43;99838.72;5079603;28;20226;-68
2021/03/12 08:04:35;;;;;;;8.57;4.10;;;;;;;8.28;56.29;99837.84;5079640;28;20419;-67
2021/03/12 08:07:15;;;;;;;8.90;4.20;;;;;;;8.31;56.51;99832.66;5079718;28;20169;-68
2021/03/12 08:09:41;;;;;;;10.20;4.23;;;;;;;8.15;56.60;99846.44;5079096;28;20419;-67
2021/03/12 08:12:06;;;;;;;9.63;4.10;;;;;;;8.37;56.54;99858.66;5079109;28;20486;-69
2021/03/12 08:14:32;;;;;;;8.23;4.13;;;;;;;8.15;56.92;99851.63;5079765;28;20531;-73
2021/03/12 08:16:57;;;;;;;9.13;3.93;;;;;;;8.06;56.69;99855.91;5086468;28;20179;-74
2021/03/12 08:19:36;;;;;;;8.80;4.33;;;;;;;8.87;54.85;99843.25;5080934;28;20172;-68
2021/03/12 08:22:27;;;;;;;9.77;4.10;;;;;;;8.88;55.56;99853.66;5078460;28;20306;-69
2021/03/12 08:24:53;;;;;;;8.77;4.07;;;;;;;8.13;56.19;99866.31;5079008;28;20434;-70
2021/03/12 08:27:49;;;;;;;6.67;3.80;;;;;;;7.86;57.25;99862.69;5079084;28;20423;-70
2021/03/12 08:30:23;;;;;;;11.23;4.43;;;;;;;8.57;55.24;99869.16;5079274;28;20502;-70
2021/03/12 08:32:49;;;;;;;6.67;4.20;;;;;;;8.21;57.18;99860.31;5078887;28;20464;-71
2021/03/12 08:35:35;;;;;;;5.73;3.37;;;;;;;7.89;57.74;99878.31;5079251;28;20411;-70
2021/03/12 08:38:23;;;;;;;5.60;3.87;;;;;;;8.13;56.79;99874.09;5078992;28;20173;-72
2021/03/12 08:40:59;;;;;;;6.50;4.20;;;;;;;8.33;56.19;99874.22;5078952;28;20399;-71
2021/03/12 08:43:25;;;;;;;8.97;3.90;;;;;;;8.61;55.64;99859.66;5078817;28;20407;-69
2021/03/12 08:45:57;;;;;;;13.87;6.60;;;;;;;8.97;54.92;99862.34;5078591;28;20411;-71
2021/03/12 08:48:29;;;;;;;8.13;4.63;;;;;;;9.49;54.12;99861.53;5078640;28;20414;-71
2021/03/12 08:51:11;;;;;;;9.10;3.70;;;;;;;10.85;49.08;99858.56;5077689;28;20467;-71
2021/03/12 08:53:45;;;;;;;6.60;3.73;;;;;;;10.02;51.59;99863.19;5078651;28;20411;-70
2021/03/12 08:56:11;;;;;;;7.73;4.50;;;;;;;9.97;51.82;99864.06;5078554;28;20411;-70
2021/03/12 08:58:37;;;;;;;8.43;3.90;;;;;;;9.41;52.18;99878.00;5078348;28;20476;-70
2021/03/12 09:01:17;;;;;;;6.60;3.80;;;;;;;10.06;52.84;99867.50;5078226;28;20533;-70
2021/03/12 09:03:49;;;;;;;7.90;4.03;;;;;;;9.61;52.91;99877.13;5078381;28;20418;-70
2021/03/12 09:06:20;;;;;;;8.37;4.60;;;;;;;9.34;52.50;99870.19;5077660;28;20415;-71
2021/03/12 09:08:46;;;;;;;7.83;3.93;;;;;;;9.78;51.38;99878.00;5078347;28;20573;-76
2021/03/12 09:11:16;;;;;;;5.67;3.83;;;;;;;8.92;53.29;99881.38;5078169;28;20455;-71
2021/03/12 09:13:44;;;;;;;8.37;3.87;;;;;;;11.09;47.72;99863.59;5078274;28;20466;-74
2021/03/12 09:16:09;;;;;;;14.13;4.30;;;;;;;10.35;49.30;99871.81;5079187;28;20473;-75
2021/03/12 09:18:36;;;;;;;7.47;3.97;;;;;;;9.95;50.51;99877.09;5079085;28;20408;-69
2021/03/12 09:21:14;;;;;;;10.50;5.80;;;;;;;10.44;49.42;99869.19;5076963;28;20180;-69
2021/03/12 09:23:45;;;;;;;11.00;4.47;;;;;;;9.42;52.05;99886.69;5078031;28;20443;-71
2021/03/12 09:26:16;;;;;;;6.43;4.23;;;;;;;8.66;53.68;99889.13;5078070;28;20728;-70
2021/03/12 09:28:42;;;;;;;9.53;5.23;;;;;;;9.22;52.51;99890.13;5078073;28;20442;-70
2021/03/12 09:31:09;;;;;;;7.43;4.20;;;;;;;9.26;52.92;99886.66;5077914;28;20481;-70
2021/03/12 09:33:45;;;;;;;6.87;4.90;;;;;;;9.15;53.97;99883.19;5078160;28;20755;-70
2021/03/12 09:36:36;;;;;;;8.80;5.50;;;;;;;9.00;53.10;99889.22;5078132;28;20804;-70
2021/03/12 09:39:22;;;;;;;11.03;4.30;;;;;;;8.89;53.35;99890.91;5078187;28;20666;-70
2021/03/12 09:41:59;;;;;;;8.60;4.40;;;;;;;8.27;54.46;99891.50;5078060;28;20427;-70
2021/03/12 09:44:25;;;;;;;7.70;4.47;;;;;;;9.51;52.90;99885.81;5077946;28;20784;-70
2021/03/12 09:46:58;;;;;;;7.23;3.93;;;;;;;10.13;51.57;99864.91;5077803;28;20430;-69
2021/03/12 09:49:25;;;;;;;8.40;4.40;;;;;;;10.25;49.39;99864.88;5078123;28;20817;-70
2021/03/12 09:51:54;;;;;;;5.80;4.20;;;;;;;11.46;46.41;99876.41;5077688;28;20459;-70
2021/03/12 09:54:20;;;;;;;8.00;3.80;;;;;;;10.08;49.10;99878.81;5077800;28;20419;-70
2021/03/12 09:56:51;;;;;;;6.27;4.43;;;;;;;10.15;49.28;99878.78;5077580;28;20388;-70
2021/03/12 09:59:23;;;;;;;10.60;4.90;;;;;;;10.93;48.11;99869.81;5077715;28;20423;-73
2021/03/12 10:01:49;;;;;;;8.03;4.37;;;;;;;10.58;48.03;99881.28;5077595;28;20677;-69
2021/03/12 10:04:36;;;;;;;10.50;4.97;;;;;;;10.47;49.24;99876.09;5077874;28;20422;-75
2021/03/12 10:07:15;;;;;;;7.27;4.30;;;;;;;9.72;50.53;99884.94;5077810;28;20542;-70
2021/03/12 10:09:45;;;;;;;12.80;5.53;;;;;;;9.97;49.52;99882.28;5077810;28;20415;-69
2021/03/12 10:12:16;;;;;;;11.67;5.00;;;;;;;9.41;51.15;99890.13;5078095;28;20784;-69
2021/03/12 10:14:43;;;;;;;11.50;4.27;;;;;;;9.40;51.68;99884.09;5081002;28;20419;-69
2021/03/12 10:17:20;;;;;;;9.03;4.70;;;;;;;10.13;51.08;99883.13;5077575;28;20557;-73
2021/03/12 10:19:55;;;;;;;8.50;4.87;;;;;;;9.72;51.84;99874.53;5077454;28;20414;-69
2021/03/12 10:22:27;;;;;;;7.60;5.00;;;;;;;9.75;51.47;99872.78;5077272;28;20429;-69
2021/03/12 10:25:09;;;;;;;9.40;5.13;;;;;;;9.82;53.13;99885.78;5059871;28;20451;-69
2021/03/12 10:27:37;;;;;;;14.50;7.13;;;;;;;9.33;51.65;99890.13;5077596;28;20411;-68
2021/03/12 10:30:32;;;;;;;13.73;4.90;;;;;;;8.96;53.07;99887.47;5077539;28;20772;-68
2021/03/12 10:32:59;;;;;;;22.73;5.60;;;;;;;9.12;52.35;99882.28;5078564;28;20419;-68
2021/03/12 10:35:34;;;;;;;8.50;4.87;;;;;;;9.14;52.03;99876.22;5081146;28;20415;-72
2021/03/12 10:38:19;;;;;;;8.03;5.20;;;;;;;9.93;51.45;99878.81;5081108;28;20421;-71
2021/03/12 10:40:48;;;;;;;9.63;5.23;;;;;;;9.26;51.27;99880.59;5080997;28;20557;-71
2021/03/12 10:43:30;;;;;;;13.00;5.77;;;;;;;9.78;51.09;99888.41;5081272;28;20419;-70
2021/03/12 10:45:58;;;;;;;9.57;5.87;;;;;;;10.42;49.21;99889.16;5080397;28;20503;-70
2021/03/12 10:48:28;;;;;;;18.70;6.50;;;;;;;10.14;49.82;99883.13;5080965;28;20491;-69
2021/03/12 10:51:03;;;;;;;9.70;5.10;;;;;;;9.76;50.10;99878.88;5080877;28;20842;-70
2021/03/12 10:53:28;;;;;;;10.20;4.90;;;;;;;9.49;50.29;99871.94;5081138;28;20496;-70
2021/03/12 10:56:01;;;;;;;9.30;5.10;;;;;;;9.88;49.31;99878.00;5081030;28;20443;-70
2021/03/12 10:58:31;;;;;;;10.37;5.10;;;;;;;9.85;49.39;99876.25;5080922;28;20189;-72
2021/03/12 11:01:24;;;;;;;10.37;5.20;;;;;;;10.34;48.56;99875.25;5080791;28;20386;-68
2021/03/12 11:03:50;;;;;;;8.00;4.90;;;;;;;9.72;49.62;99880.59;5079291;28;20860;-68
2021/03/12 11:06:17;;;;;;;8.07;5.00;;;;;;;9.68;49.76;99884.06;5080696;28;20423;-69
2021/03/12 11:08:43;;;;;;;7.97;5.00;;;;;;;9.68;50.91;99870.19;5080389;28;20185;-70
2021/03/12 11:11:11;;;;;;;12.23;5.80;;;;;;;10.09;48.94;99883.16;5080019;28;20446;-70
2021/03/12 11:13:37;;;;;;;12.37;5.60;;;;;;;10.41;48.69;99871.78;5080635;28;20165;-69
2021/03/12 11:16:03;;;;;;;13.90;6.07;;;;;;;10.05;49.11;99871.00;5081385;28;20419;-72
2021/03/12 11:18:30;;;;;;;11.57;5.90;;;;;;;10.10;48.80;99864.03;5083119;28;20485;-69
2021/03/12 11:20:57;;;;;;;6.57;5.40;;;;;;;9.70;50.16;99865.84;5080863;28;20185;-69
2021/03/12 11:23:22;;;;;;;8.60;6.13;;;;;;;9.85;49.12;99864.94;5081125;28;20795;-69
2021/03/12 11:25:48;;;;;;;7.97;5.80;;;;;;;10.03;48.73;99846.69;5080314;28;20469;-70
2021/03/12 11:28:13;;;;;;;8.50;5.80;;;;;;;10.13;49.26;99859.69;5080784;28;20184;-70
2021/03/12 11:30:38;;;;;;;13.03;6.13;;;;;;;9.41;50.96;99869.31;5080703;28;20287;-70
2021/03/12 11:33:04;;;;;;;6.80;5.43;;;;;;;9.64;50.32;99856.31;5080456;28;20212;-68
2021/03/12 11:35:30;;;;;;;8.67;5.33;;;;;;;9.90;50.08;99855.41;5080323;28;20264;-69
2021/03/12 11:37:55;;;;;;;17.47;8.10;;;;;;;9.90;50.22;99858.00;5080579;28;20180;-69
2021/03/12 11:40:21;;;;;;;13.03;5.93;;;;;;;10.66;48.30;99856.03;5080424;28;20210;-69
2021/03/12 11:42:46;;;;;;;10.57;5.73;;;;;;;11.05;47.42;99854.06;5080105;28;20264;-69